sensor_id;sensor_type;location;lat;lon;timestamp;P1;durP1;ratioP1;P2;durP2;ratioP2
80677;SDS011;70042;52.494;5.502;2023-12-07T00:02:16;3.78;;;1.85;;
80677;SDS011;70042;52.494;5.502;2023-12-07T00:04:42;3.30;;;2.17;;
80677;SDS011;70042;52.494;5.502;2023-12-07T00:07:07;2.15;;;1.65;;
80677;SDS011;70042;52.494;5.502;2023-12-07T00:09:33;2.60;;;2.00;;
80677;SDS011;70042;52.494;5.502;2023-12-07T00:11:58;2.80;;;1.90;;
80677;SDS011;70042;52.494;5.502;2023-12-07T00:14:24;4.15;;;2.13;;
80677;SDS011;70042;52.494;5.502;2023-12-07T00:16:49;2.65;;;2.05;;
80677;SDS011;70042;52.494;5.502;2023-12-07T00:19:15;3.88;;;1.85;;
80677;SDS011;70042;52.494;5.502;2023-12-07T00:21:41;2.63;;;2.00;;
80677;SDS011;70042;52.494;5.502;2023-12-07T00:24:06;2.60;;;1.73;;
80677;SDS011;70042;52.494;5.502;2023-12-07T00:26:32;2.90;;;2.00;;
80677;SDS011;70042;52.494;5.502;2023-12-07T00:28:57;2.15;;;1.67;;
80677;SDS011;70042;52.494;5.502;2023-12-07T00:31:22;4.30;;;1.77;;
80677;SDS011;70042;52.494;5.502;2023-12-07T00:33:48;3.30;;;2.15;;
80677;SDS011;70042;52.494;5.502;2023-12-07T00:36:13;2.97;;;2.08;;
80677;SDS011;70042;52.494;5.502;2023-12-07T00:38:39;2.53;;;2.03;;
80677;SDS011;70042;52.494;5.502;2023-12-07T00:41:04;2.25;;;1.80;;
80677;SDS011;70042;52.494;5.502;2023-12-07T00:43:30;2.97;;;1.80;;
80677;SDS011;70042;52.494;5.502;2023-12-07T00:45:56;2.72;;;1.88;;
80677;SDS011;70042;52.494;5.502;2023-12-07T00:48:22;2.58;;;1.73;;
80677;SDS011;70042;52.494;5.502;2023-12-07T00:50:48;2.60;;;1.88;;
80677;SDS011;70042;52.494;5.502;2023-12-07T00:53:13;2.00;;;1.70;;
80677;SDS011;70042;52.494;5.502;2023-12-07T00:55:39;2.50;;;1.90;;
80677;SDS011;70042;52.494;5.502;2023-12-07T01:00:30;3.22;;;1.67;;
80677;SDS011;70042;52.494;5.502;2023-12-07T01:02:56;2.72;;;1.80;;
80677;SDS011;70042;52.494;5.502;2023-12-07T01:05:22;2.70;;;1.80;;
80677;SDS011;70042;52.494;5.502;2023-12-07T01:07:47;2.55;;;1.38;;
80677;SDS011;70042;52.494;5.502;2023-12-07T01:10:12;2.17;;;1.60;;
80677;SDS011;70042;52.494;5.502;2023-12-07T01:12:39;2.22;;;1.42;;
80677;SDS011;70042;52.494;5.502;2023-12-07T01:15:04;2.15;;;1.67;;
80677;SDS011;70042;52.494;5.502;2023-12-07T01:17:30;2.90;;;1.70;;
80677;SDS011;70042;52.494;5.502;2023-12-07T01:19:56;5.88;;;1.98;;
80677;SDS011;70042;52.494;5.502;2023-12-07T01:22:21;2.28;;;1.52;;
80677;SDS011;70042;52.494;5.502;2023-12-07T01:24:47;2.97;;;2.03;;
80677;SDS011;70042;52.494;5.502;2023-12-07T01:27:13;2.92;;;1.90;;
80677;SDS011;70042;52.494;5.502;2023-12-07T01:29:38;2.28;;;1.63;;
80677;SDS011;70042;52.494;5.502;2023-12-07T01:32:04;3.10;;;1.88;;
80677;SDS011;70042;52.494;5.502;2023-12-07T01:34:30;3.20;;;1.90;;
80677;SDS011;70042;52.494;5.502;2023-12-07T01:36:57;2.92;;;1.73;;
80677;SDS011;70042;52.494;5.502;2023-12-07T01:39:23;2.92;;;1.70;;
80677;SDS011;70042;52.494;5.502;2023-12-07T01:41:49;1.70;;;1.60;;
80677;SDS011;70042;52.494;5.502;2023-12-07T01:44:15;2.33;;;1.52;;
80677;SDS011;70042;52.494;5.502;2023-12-07T01:46:40;2.15;;;1.63;;
80677;SDS011;70042;52.494;5.502;2023-12-07T01:49:07;2.75;;;1.98;;
80677;SDS011;70042;52.494;5.502;2023-12-07T01:51:33;2.67;;;1.50;;
80677;SDS011;70042;52.494;5.502;2023-12-07T01:53:59;2.70;;;1.80;;
80677;SDS011;70042;52.494;5.502;2023-12-07T01:56:25;2.20;;;1.70;;
80677;SDS011;70042;52.494;5.502;2023-12-07T01:58:51;2.08;;;1.85;;
80677;SDS011;70042;52.494;5.502;2023-12-07T02:01:16;2.45;;;1.95;;
80677;SDS011;70042;52.494;5.502;2023-12-07T02:03:42;2.47;;;1.80;;
80677;SDS011;70042;52.494;5.502;2023-12-07T02:06:08;2.88;;;1.90;;
80677;SDS011;70042;52.494;5.502;2023-12-07T02:08:34;2.72;;;1.73;;
80677;SDS011;70042;52.494;5.502;2023-12-07T02:11:00;2.92;;;1.90;;
80677;SDS011;70042;52.494;5.502;2023-12-07T02:13:25;3.30;;;1.98;;
80677;SDS011;70042;52.494;5.502;2023-12-07T02:15:52;4.88;;;1.80;;
80677;SDS011;70042;52.494;5.502;2023-12-07T02:21:04;3.40;;;2.10;;
80677;SDS011;70042;52.494;5.502;2023-12-07T02:23:45;3.58;;;2.13;;
80677;SDS011;70042;52.494;5.502;2023-12-07T02:26:12;4.40;;;1.92;;
80677;SDS011;70042;52.494;5.502;2023-12-07T02:28:43;2.25;;;1.90;;
80677;SDS011;70042;52.494;5.502;2023-12-07T02:31:09;3.10;;;2.05;;
80677;SDS011;70042;52.494;5.502;2023-12-07T02:33:34;3.53;;;2.20;;
80677;SDS011;70042;52.494;5.502;2023-12-07T02:36:00;2.80;;;1.88;;
80677;SDS011;70042;52.494;5.502;2023-12-07T02:38:26;4.03;;;2.25;;
80677;SDS011;70042;52.494;5.502;2023-12-07T02:40:53;3.85;;;2.22;;
80677;SDS011;70042;52.494;5.502;2023-12-07T02:43:20;2.25;;;1.77;;
80677;SDS011;70042;52.494;5.502;2023-12-07T02:45:47;3.03;;;1.90;;
80677;SDS011;70042;52.494;5.502;2023-12-07T02:48:13;2.70;;;1.92;;
80677;SDS011;70042;52.494;5.502;2023-12-07T02:50:38;3.67;;;2.20;;
80677;SDS011;70042;52.494;5.502;2023-12-07T02:53:04;2.83;;;1.83;;
80677;SDS011;70042;52.494;5.502;2023-12-07T02:55:29;3.88;;;2.10;;
80677;SDS011;70042;52.494;5.502;2023-12-07T02:57:55;2.30;;;1.77;;
80677;SDS011;70042;52.494;5.502;2023-12-07T03:00:20;2.75;;;2.15;;
80677;SDS011;70042;52.494;5.502;2023-12-07T03:02:46;2.55;;;1.73;;
80677;SDS011;70042;52.494;5.502;2023-12-07T03:05:13;2.38;;;1.90;;
80677;SDS011;70042;52.494;5.502;2023-12-07T03:07:38;3.92;;;2.45;;
80677;SDS011;70042;52.494;5.502;2023-12-07T03:10:04;3.42;;;2.05;;
80677;SDS011;70042;52.494;5.502;2023-12-07T03:12:29;2.20;;;1.80;;
80677;SDS011;70042;52.494;5.502;2023-12-07T03:14:55;4.38;;;2.13;;
80677;SDS011;70042;52.494;5.502;2023-12-07T03:17:20;3.85;;;1.77;;
80677;SDS011;70042;52.494;5.502;2023-12-07T03:19:46;4.13;;;2.22;;
80677;SDS011;70042;52.494;5.502;2023-12-07T03:22:14;2.75;;;1.90;;
80677;SDS011;70042;52.494;5.502;2023-12-07T03:24:40;2.90;;;2.00;;
80677;SDS011;70042;52.494;5.502;2023-12-07T03:27:11;2.08;;;1.67;;
80677;SDS011;70042;52.494;5.502;2023-12-07T03:29:36;2.92;;;2.17;;
80677;SDS011;70042;52.494;5.502;2023-12-07T03:32:01;4.22;;;1.92;;
80677;SDS011;70042;52.494;5.502;2023-12-07T03:34:27;2.72;;;1.90;;
80677;SDS011;70042;52.494;5.502;2023-12-07T03:36:53;2.75;;;1.90;;
80677;SDS011;70042;52.494;5.502;2023-12-07T03:39:18;3.40;;;2.03;;
80677;SDS011;70042;52.494;5.502;2023-12-07T03:41:44;2.17;;;1.80;;
80677;SDS011;70042;52.494;5.502;2023-12-07T03:44:09;2.85;;;2.03;;
80677;SDS011;70042;52.494;5.502;2023-12-07T03:46:35;4.72;;;1.90;;
80677;SDS011;70042;52.494;5.502;2023-12-07T03:49:01;2.42;;;1.83;;
80677;SDS011;70042;52.494;5.502;2023-12-07T03:51:27;3.20;;;2.30;;
80677;SDS011;70042;52.494;5.502;2023-12-07T03:56:25;3.42;;;2.20;;
80677;SDS011;70042;52.494;5.502;2023-12-07T03:58:51;2.70;;;2.42;;
80677;SDS011;70042;52.494;5.502;2023-12-07T04:01:17;3.28;;;1.83;;
80677;SDS011;70042;52.494;5.502;2023-12-07T04:03:42;3.03;;;2.45;;
80677;SDS011;70042;52.494;5.502;2023-12-07T04:06:08;2.97;;;2.08;;
80677;SDS011;70042;52.494;5.502;2023-12-07T04:08:34;3.13;;;2.30;;
80677;SDS011;70042;52.494;5.502;2023-12-07T04:10:59;3.63;;;2.17;;
80677;SDS011;70042;52.494;5.502;2023-12-07T04:13:25;2.33;;;1.77;;
80677;SDS011;70042;52.494;5.502;2023-12-07T04:15:50;3.22;;;1.98;;
80677;SDS011;70042;52.494;5.502;2023-12-07T04:18:15;2.35;;;1.77;;
80677;SDS011;70042;52.494;5.502;2023-12-07T04:20:41;3.03;;;1.80;;
80677;SDS011;70042;52.494;5.502;2023-12-07T04:23:06;3.28;;;2.30;;
80677;SDS011;70042;52.494;5.502;2023-12-07T04:25:32;3.55;;;2.20;;
80677;SDS011;70042;52.494;5.502;2023-12-07T04:27:58;3.33;;;2.10;;
80677;SDS011;70042;52.494;5.502;2023-12-07T04:30:24;2.55;;;1.73;;
80677;SDS011;70042;52.494;5.502;2023-12-07T04:32:49;2.83;;;2.00;;
80677;SDS011;70042;52.494;5.502;2023-12-07T04:35:14;3.05;;;2.30;;
80677;SDS011;70042;52.494;5.502;2023-12-07T04:37:40;3.00;;;1.75;;
80677;SDS011;70042;52.494;5.502;2023-12-07T04:40:05;2.28;;;1.95;;
80677;SDS011;70042;52.494;5.502;2023-12-07T04:42:32;2.50;;;1.92;;
80677;SDS011;70042;52.494;5.502;2023-12-07T04:44:57;2.28;;;1.88;;
80677;SDS011;70042;52.494;5.502;2023-12-07T04:47:22;2.80;;;2.03;;
80677;SDS011;70042;52.494;5.502;2023-12-07T04:49:48;2.60;;;2.03;;
80677;SDS011;70042;52.494;5.502;2023-12-07T04:52:14;2.50;;;1.85;;
80677;SDS011;70042;52.494;5.502;2023-12-07T04:54:39;2.78;;;2.15;;
80677;SDS011;70042;52.494;5.502;2023-12-07T04:57:04;3.22;;;2.22;;
80677;SDS011;70042;52.494;5.502;2023-12-07T04:59:30;2.35;;;1.90;;
80677;SDS011;70042;52.494;5.502;2023-12-07T05:01:55;2.45;;;1.80;;
80677;SDS011;70042;52.494;5.502;2023-12-07T05:04:21;2.78;;;1.90;;
80677;SDS011;70042;52.494;5.502;2023-12-07T05:06:46;3.45;;;1.92;;
80677;SDS011;70042;52.494;5.502;2023-12-07T05:09:12;2.38;;;1.85;;
80677;SDS011;70042;52.494;5.502;2023-12-07T05:11:37;3.00;;;2.03;;
80677;SDS011;70042;52.494;5.502;2023-12-07T05:14:03;2.35;;;1.90;;
80677;SDS011;70042;52.494;5.502;2023-12-07T05:16:28;3.28;;;2.30;;
80677;SDS011;70042;52.494;5.502;2023-12-07T05:18:54;2.10;;;1.88;;
80677;SDS011;70042;52.494;5.502;2023-12-07T05:21:20;3.65;;;2.00;;
80677;SDS011;70042;52.494;5.502;2023-12-07T05:23:46;2.50;;;2.10;;
80677;SDS011;70042;52.494;5.502;2023-12-07T05:26:11;3.08;;;2.05;;
80677;SDS011;70042;52.494;5.502;2023-12-07T05:28:37;2.50;;;1.90;;
80677;SDS011;70042;52.494;5.502;2023-12-07T05:31:03;3.10;;;2.20;;
80677;SDS011;70042;52.494;5.502;2023-12-07T05:33:28;2.33;;;2.13;;
80677;SDS011;70042;52.494;5.502;2023-12-07T05:35:54;2.30;;;1.90;;
80677;SDS011;70042;52.494;5.502;2023-12-07T05:38:19;2.95;;;1.83;;
80677;SDS011;70042;52.494;5.502;2023-12-07T05:40:45;2.97;;;1.65;;
80677;SDS011;70042;52.494;5.502;2023-12-07T05:43:10;2.63;;;1.92;;
80677;SDS011;70042;52.494;5.502;2023-12-07T05:45:35;2.72;;;1.95;;
80677;SDS011;70042;52.494;5.502;2023-12-07T05:48:01;2.53;;;1.98;;
80677;SDS011;70042;52.494;5.502;2023-12-07T05:50:26;2.47;;;1.70;;
80677;SDS011;70042;52.494;5.502;2023-12-07T05:52:52;2.72;;;2.00;;
80677;SDS011;70042;52.494;5.502;2023-12-07T05:55:17;2.58;;;2.13;;
80677;SDS011;70042;52.494;5.502;2023-12-07T05:57:44;3.33;;;2.13;;
80677;SDS011;70042;52.494;5.502;2023-12-07T06:00:11;2.17;;;1.90;;
80677;SDS011;70042;52.494;5.502;2023-12-07T06:02:37;3.38;;;2.00;;
80677;SDS011;70042;52.494;5.502;2023-12-07T06:05:03;2.70;;;1.88;;
80677;SDS011;70042;52.494;5.502;2023-12-07T06:07:31;4.13;;;2.00;;
80677;SDS011;70042;52.494;5.502;2023-12-07T06:09:57;3.40;;;1.80;;
80677;SDS011;70042;52.494;5.502;2023-12-07T06:12:24;2.58;;;1.90;;
80677;SDS011;70042;52.494;5.502;2023-12-07T06:14:49;2.50;;;1.92;;
80677;SDS011;70042;52.494;5.502;2023-12-07T06:17:15;3.13;;;1.92;;
80677;SDS011;70042;52.494;5.502;2023-12-07T06:19:41;2.97;;;1.83;;
80677;SDS011;70042;52.494;5.502;2023-12-07T06:22:07;3.47;;;2.00;;
80677;SDS011;70042;52.494;5.502;2023-12-07T06:24:33;2.75;;;1.95;;
80677;SDS011;70042;52.494;5.502;2023-12-07T06:26:59;2.08;;;1.70;;
80677;SDS011;70042;52.494;5.502;2023-12-07T06:29:26;2.60;;;1.80;;
80677;SDS011;70042;52.494;5.502;2023-12-07T06:31:52;1.88;;;1.63;;
80677;SDS011;70042;52.494;5.502;2023-12-07T06:34:17;2.25;;;2.00;;
80677;SDS011;70042;52.494;5.502;2023-12-07T06:36:43;3.00;;;1.70;;
80677;SDS011;70042;52.494;5.502;2023-12-07T06:39:09;3.47;;;2.10;;
80677;SDS011;70042;52.494;5.502;2023-12-07T06:41:43;2.28;;;1.67;;
80677;SDS011;70042;52.494;5.502;2023-12-07T06:44:09;2.50;;;1.70;;
80677;SDS011;70042;52.494;5.502;2023-12-07T06:46:34;2.55;;;1.80;;
80677;SDS011;70042;52.494;5.502;2023-12-07T06:49:00;2.75;;;1.73;;
80677;SDS011;70042;52.494;5.502;2023-12-07T06:51:25;3.05;;;2.05;;
80677;SDS011;70042;52.494;5.502;2023-12-07T06:53:50;3.00;;;2.05;;
80677;SDS011;70042;52.494;5.502;2023-12-07T06:56:16;2.40;;;2.00;;
80677;SDS011;70042;52.494;5.502;2023-12-07T06:58:42;3.30;;;2.17;;
80677;SDS011;70042;52.494;5.502;2023-12-07T07:01:07;2.47;;;1.73;;
80677;SDS011;70042;52.494;5.502;2023-12-07T07:03:33;3.15;;;1.98;;
80677;SDS011;70042;52.494;5.502;2023-12-07T07:06:00;2.22;;;1.60;;
80677;SDS011;70042;52.494;5.502;2023-12-07T07:08:25;2.92;;;2.10;;
80677;SDS011;70042;52.494;5.502;2023-12-07T07:10:51;2.63;;;1.90;;
80677;SDS011;70042;52.494;5.502;2023-12-07T07:13:17;3.13;;;2.00;;
80677;SDS011;70042;52.494;5.502;2023-12-07T07:15:44;2.22;;;1.90;;
80677;SDS011;70042;52.494;5.502;2023-12-07T07:18:10;2.63;;;2.00;;
80677;SDS011;70042;52.494;5.502;2023-12-07T07:20:35;3.42;;;2.08;;
80677;SDS011;70042;52.494;5.502;2023-12-07T07:23:00;3.17;;;2.05;;
80677;SDS011;70042;52.494;5.502;2023-12-07T07:25:26;5.10;;;2.67;;
80677;SDS011;70042;52.494;5.502;2023-12-07T07:27:52;3.20;;;2.00;;
80677;SDS011;70042;52.494;5.502;2023-12-07T07:30:19;3.03;;;1.98;;
80677;SDS011;70042;52.494;5.502;2023-12-07T07:32:47;3.65;;;2.03;;
80677;SDS011;70042;52.494;5.502;2023-12-07T07:35:14;2.38;;;1.73;;
80677;SDS011;70042;52.494;5.502;2023-12-07T07:37:39;3.80;;;2.47;;
80677;SDS011;70042;52.494;5.502;2023-12-07T07:40:06;4.40;;;2.60;;
80677;SDS011;70042;52.494;5.502;2023-12-07T07:42:33;2.85;;;1.92;;
80677;SDS011;70042;52.494;5.502;2023-12-07T07:44:59;2.00;;;1.60;;
80677;SDS011;70042;52.494;5.502;2023-12-07T07:47:24;3.00;;;2.25;;
80677;SDS011;70042;52.494;5.502;2023-12-07T07:49:49;3.28;;;2.10;;
80677;SDS011;70042;52.494;5.502;2023-12-07T07:52:15;3.08;;;2.13;;
80677;SDS011;70042;52.494;5.502;2023-12-07T07:54:40;3.88;;;2.33;;
80677;SDS011;70042;52.494;5.502;2023-12-07T07:57:06;2.80;;;1.90;;
80677;SDS011;70042;52.494;5.502;2023-12-07T07:59:31;3.15;;;2.33;;
80677;SDS011;70042;52.494;5.502;2023-12-07T08:01:57;3.35;;;1.90;;
80677;SDS011;70042;52.494;5.502;2023-12-07T08:04:22;3.15;;;2.03;;
80677;SDS011;70042;52.494;5.502;2023-12-07T08:06:48;2.92;;;1.98;;
80677;SDS011;70042;52.494;5.502;2023-12-07T08:09:13;2.72;;;2.10;;
80677;SDS011;70042;52.494;5.502;2023-12-07T08:11:39;2.38;;;2.00;;
80677;SDS011;70042;52.494;5.502;2023-12-07T08:14:04;2.42;;;1.92;;
80677;SDS011;70042;52.494;5.502;2023-12-07T08:16:30;2.38;;;2.08;;
80677;SDS011;70042;52.494;5.502;2023-12-07T08:18:55;3.08;;;1.90;;
80677;SDS011;70042;52.494;5.502;2023-12-07T08:21:21;2.95;;;1.90;;
80677;SDS011;70042;52.494;5.502;2023-12-07T08:23:47;2.13;;;1.90;;
80677;SDS011;70042;52.494;5.502;2023-12-07T08:26:12;2.40;;;1.90;;
80677;SDS011;70042;52.494;5.502;2023-12-07T08:28:39;2.78;;;1.90;;
80677;SDS011;70042;52.494;5.502;2023-12-07T08:31:08;3.15;;;2.17;;
80677;SDS011;70042;52.494;5.502;2023-12-07T08:33:33;2.90;;;2.17;;
80677;SDS011;70042;52.494;5.502;2023-12-07T08:36:02;2.25;;;1.77;;
80677;SDS011;70042;52.494;5.502;2023-12-07T08:38:28;3.58;;;2.10;;
80677;SDS011;70042;52.494;5.502;2023-12-07T08:41:34;3.72;;;2.25;;
80677;SDS011;70042;52.494;5.502;2023-12-07T08:44:02;2.40;;;1.70;;
80677;SDS011;70042;52.494;5.502;2023-12-07T08:46:28;3.75;;;2.28;;
80677;SDS011;70042;52.494;5.502;2023-12-07T08:48:54;2.90;;;2.17;;
80677;SDS011;70042;52.494;5.502;2023-12-07T08:51:21;3.13;;;2.15;;
80677;SDS011;70042;52.494;5.502;2023-12-07T08:53:46;2.47;;;2.03;;
80677;SDS011;70042;52.494;5.502;2023-12-07T08:56:12;2.47;;;1.85;;
80677;SDS011;70042;52.494;5.502;2023-12-07T08:58:38;2.30;;;1.70;;
80677;SDS011;70042;52.494;5.502;2023-12-07T09:01:04;4.60;;;2.10;;
80677;SDS011;70042;52.494;5.502;2023-12-07T09:03:30;3.47;;;2.25;;
80677;SDS011;70042;52.494;5.502;2023-12-07T09:06:01;2.60;;;2.22;;
80677;SDS011;70042;52.494;5.502;2023-12-07T09:08:27;3.28;;;2.05;;
80677;SDS011;70042;52.494;5.502;2023-12-07T09:10:53;3.22;;;2.10;;
80677;SDS011;70042;52.494;5.502;2023-12-07T09:13:18;3.65;;;2.35;;
80677;SDS011;70042;52.494;5.502;2023-12-07T09:15:44;2.60;;;2.20;;
80677;SDS011;70042;52.494;5.502;2023-12-07T09:18:09;2.88;;;2.22;;
80677;SDS011;70042;52.494;5.502;2023-12-07T09:20:41;3.22;;;2.35;;
80677;SDS011;70042;52.494;5.502;2023-12-07T09:23:11;2.22;;;2.03;;
80677;SDS011;70042;52.494;5.502;2023-12-07T09:25:37;3.80;;;2.15;;
80677;SDS011;70042;52.494;5.502;2023-12-07T09:28:03;2.92;;;1.90;;
80677;SDS011;70042;52.494;5.502;2023-12-07T09:30:29;2.97;;;2.30;;
80677;SDS011;70042;52.494;5.502;2023-12-07T09:32:54;2.65;;;1.95;;
80677;SDS011;70042;52.494;5.502;2023-12-07T09:35:20;3.20;;;2.05;;
80677;SDS011;70042;52.494;5.502;2023-12-07T09:37:45;4.25;;;2.33;;
80677;SDS011;70042;52.494;5.502;2023-12-07T09:40:17;2.22;;;1.98;;
80677;SDS011;70042;52.494;5.502;2023-12-07T09:42:45;2.80;;;2.17;;
80677;SDS011;70042;52.494;5.502;2023-12-07T09:45:11;3.58;;;2.03;;
80677;SDS011;70042;52.494;5.502;2023-12-07T09:47:38;3.72;;;2.25;;
80677;SDS011;70042;52.494;5.502;2023-12-07T09:50:05;2.70;;;2.15;;
80677;SDS011;70042;52.494;5.502;2023-12-07T09:52:37;2.40;;;1.90;;
80677;SDS011;70042;52.494;5.502;2023-12-07T09:55:04;2.70;;;2.20;;
80677;SDS011;70042;52.494;5.502;2023-12-07T09:57:32;2.97;;;2.22;;
80677;SDS011;70042;52.494;5.502;2023-12-07T09:59:58;4.32;;;2.38;;
80677;SDS011;70042;52.494;5.502;2023-12-07T10:02:24;3.10;;;2.20;;
80677;SDS011;70042;52.494;5.502;2023-12-07T10:05:04;3.53;;;2.40;;
80677;SDS011;70042;52.494;5.502;2023-12-07T10:07:35;3.10;;;2.30;;
80677;SDS011;70042;52.494;5.502;2023-12-07T10:10:02;3.08;;;2.40;;
80677;SDS011;70042;52.494;5.502;2023-12-07T10:12:32;3.03;;;2.30;;
80677;SDS011;70042;52.494;5.502;2023-12-07T10:15:00;3.65;;;2.70;;
80677;SDS011;70042;52.494;5.502;2023-12-07T10:17:45;3.17;;;2.22;;
80677;SDS011;70042;52.494;5.502;2023-12-07T10:20:18;3.35;;;2.13;;
80677;SDS011;70042;52.494;5.502;2023-12-07T10:22:48;3.13;;;2.20;;
80677;SDS011;70042;52.494;5.502;2023-12-07T10:25:26;3.10;;;2.25;;
80677;SDS011;70042;52.494;5.502;2023-12-07T10:27:51;2.97;;;2.42;;
80677;SDS011;70042;52.494;5.502;2023-12-07T10:30:17;4.40;;;2.13;;
80677;SDS011;70042;52.494;5.502;2023-12-07T10:32:46;3.60;;;2.50;;
80677;SDS011;70042;52.494;5.502;2023-12-07T10:35:11;3.70;;;2.78;;
80677;SDS011;70042;52.494;5.502;2023-12-07T10:37:37;3.40;;;2.70;;
80677;SDS011;70042;52.494;5.502;2023-12-07T10:40:02;3.58;;;2.90;;
80677;SDS011;70042;52.494;5.502;2023-12-07T10:42:32;3.42;;;3.13;;
80677;SDS011;70042;52.494;5.502;2023-12-07T10:45:02;4.28;;;2.90;;
80677;SDS011;70042;52.494;5.502;2023-12-07T10:47:29;4.18;;;2.65;;
80677;SDS011;70042;52.494;5.502;2023-12-07T10:49:57;3.00;;;2.67;;
80677;SDS011;70042;52.494;5.502;2023-12-07T10:52:25;3.22;;;2.53;;
80677;SDS011;70042;52.494;5.502;2023-12-07T10:57:23;4.45;;;2.95;;
80677;SDS011;70042;52.494;5.502;2023-12-07T10:59:50;4.03;;;2.65;;
80677;SDS011;70042;52.494;5.502;2023-12-07T11:02:21;3.40;;;3.10;;
80677;SDS011;70042;52.494;5.502;2023-12-07T11:04:47;3.35;;;2.80;;
80677;SDS011;70042;52.494;5.502;2023-12-07T11:07:14;3.08;;;2.50;;
80677;SDS011;70042;52.494;5.502;2023-12-07T11:09:47;4.32;;;3.00;;
80677;SDS011;70042;52.494;5.502;2023-12-07T11:12:20;3.97;;;3.15;;
80677;SDS011;70042;52.494;5.502;2023-12-07T11:14:56;3.35;;;2.30;;
80677;SDS011;70042;52.494;5.502;2023-12-07T11:17:22;3.08;;;2.78;;
80677;SDS011;70042;52.494;5.502;2023-12-07T11:19:48;3.30;;;2.80;;
80677;SDS011;70042;52.494;5.502;2023-12-07T11:22:13;3.80;;;2.72;;
80677;SDS011;70042;52.494;5.502;2023-12-07T11:24:55;3.38;;;2.55;;
80677;SDS011;70042;52.494;5.502;2023-12-07T11:27:24;3.40;;;2.53;;
80677;SDS011;70042;52.494;5.502;2023-12-07T11:29:50;3.80;;;2.35;;
80677;SDS011;70042;52.494;5.502;2023-12-07T11:32:16;3.92;;;2.90;;
80677;SDS011;70042;52.494;5.502;2023-12-07T11:34:42;4.25;;;2.72;;
80677;SDS011;70042;52.494;5.502;2023-12-07T11:37:09;3.83;;;2.80;;
80677;SDS011;70042;52.494;5.502;2023-12-07T11:39:39;4.78;;;3.42;;
80677;SDS011;70042;52.494;5.502;2023-12-07T11:42:13;3.17;;;2.40;;
80677;SDS011;70042;52.494;5.502;2023-12-07T11:44:41;3.45;;;2.80;;
80677;SDS011;70042;52.494;5.502;2023-12-07T11:47:09;3.90;;;2.83;;
80677;SDS011;70042;52.494;5.502;2023-12-07T11:49:35;3.17;;;2.50;;
80677;SDS011;70042;52.494;5.502;2023-12-07T11:52:01;5.38;;;2.88;;
80677;SDS011;70042;52.494;5.502;2023-12-07T11:54:38;3.10;;;2.80;;
80677;SDS011;70042;52.494;5.502;2023-12-07T11:57:03;3.30;;;2.95;;
80677;SDS011;70042;52.494;5.502;2023-12-07T11:59:29;4.95;;;3.03;;
80677;SDS011;70042;52.494;5.502;2023-12-07T12:01:58;5.00;;;3.05;;
80677;SDS011;70042;52.494;5.502;2023-12-07T12:04:24;4.55;;;3.10;;
80677;SDS011;70042;52.494;5.502;2023-12-07T12:06:50;4.35;;;3.10;;
80677;SDS011;70042;52.494;5.502;2023-12-07T12:09:15;4.40;;;2.95;;
80677;SDS011;70042;52.494;5.502;2023-12-07T12:11:46;3.72;;;2.80;;
80677;SDS011;70042;52.494;5.502;2023-12-07T12:14:16;5.40;;;2.95;;
80677;SDS011;70042;52.494;5.502;2023-12-07T12:16:42;4.18;;;2.92;;
80677;SDS011;70042;52.494;5.502;2023-12-07T12:19:09;3.22;;;2.63;;
80677;SDS011;70042;52.494;5.502;2023-12-07T12:21:38;2.95;;;2.53;;
80677;SDS011;70042;52.494;5.502;2023-12-07T12:24:04;3.30;;;2.88;;
80677;SDS011;70042;52.494;5.502;2023-12-07T12:26:31;5.68;;;3.28;;
80677;SDS011;70042;52.494;5.502;2023-12-07T12:29:02;4.43;;;2.70;;
80677;SDS011;70042;52.494;5.502;2023-12-07T12:31:29;3.42;;;2.63;;
80677;SDS011;70042;52.494;5.502;2023-12-07T12:33:55;3.22;;;2.72;;
80677;SDS011;70042;52.494;5.502;2023-12-07T12:36:20;5.20;;;3.30;;
80677;SDS011;70042;52.494;5.502;2023-12-07T12:38:52;4.13;;;3.10;;
80677;SDS011;70042;52.494;5.502;2023-12-07T12:41:21;3.25;;;2.72;;
80677;SDS011;70042;52.494;5.502;2023-12-07T12:43:47;4.03;;;2.60;;
80677;SDS011;70042;52.494;5.502;2023-12-07T12:46:13;3.88;;;2.70;;
80677;SDS011;70042;52.494;5.502;2023-12-07T12:48:52;4.22;;;2.83;;
80677;SDS011;70042;52.494;5.502;2023-12-07T12:51:23;3.85;;;2.50;;
80677;SDS011;70042;52.494;5.502;2023-12-07T12:53:50;5.53;;;3.03;;
80677;SDS011;70042;52.494;5.502;2023-12-07T12:56:16;3.58;;;2.65;;
80677;SDS011;70042;52.494;5.502;2023-12-07T12:58:44;4.65;;;2.85;;
80677;SDS011;70042;52.494;5.502;2023-12-07T13:01:09;4.55;;;3.00;;
80677;SDS011;70042;52.494;5.502;2023-12-07T13:03:35;3.65;;;2.35;;
80677;SDS011;70042;52.494;5.502;2023-12-07T13:06:01;3.25;;;2.17;;
80677;SDS011;70042;52.494;5.502;2023-12-07T13:08:26;3.85;;;2.70;;
80677;SDS011;70042;52.494;5.502;2023-12-07T13:10:52;3.70;;;2.63;;
80677;SDS011;70042;52.494;5.502;2023-12-07T13:13:17;3.20;;;2.17;;
80677;SDS011;70042;52.494;5.502;2023-12-07T13:15:43;3.50;;;2.80;;
80677;SDS011;70042;52.494;5.502;2023-12-07T13:18:12;3.30;;;2.60;;
80677;SDS011;70042;52.494;5.502;2023-12-07T13:20:38;2.92;;;2.22;;
80677;SDS011;70042;52.494;5.502;2023-12-07T13:23:04;3.53;;;2.72;;
80677;SDS011;70042;52.494;5.502;2023-12-07T13:25:30;3.75;;;2.58;;
80677;SDS011;70042;52.494;5.502;2023-12-07T13:27:55;2.92;;;2.50;;
80677;SDS011;70042;52.494;5.502;2023-12-07T13:30:21;4.53;;;2.20;;
80677;SDS011;70042;52.494;5.502;2023-12-07T13:32:46;3.30;;;2.42;;
80677;SDS011;70042;52.494;5.502;2023-12-07T13:35:13;3.67;;;2.22;;
80677;SDS011;70042;52.494;5.502;2023-12-07T13:37:38;3.50;;;2.60;;
80677;SDS011;70042;52.494;5.502;2023-12-07T13:40:04;4.60;;;2.08;;
80677;SDS011;70042;52.494;5.502;2023-12-07T13:42:35;3.83;;;2.55;;
80677;SDS011;70042;52.494;5.502;2023-12-07T13:45:01;3.55;;;2.40;;
80677;SDS011;70042;52.494;5.502;2023-12-07T13:47:27;3.53;;;2.40;;
80677;SDS011;70042;52.494;5.502;2023-12-07T13:49:56;3.72;;;2.40;;
80677;SDS011;70042;52.494;5.502;2023-12-07T13:52:23;4.85;;;2.33;;
80677;SDS011;70042;52.494;5.502;2023-12-07T13:54:48;4.70;;;2.22;;
80677;SDS011;70042;52.494;5.502;2023-12-07T13:57:14;3.88;;;3.22;;
80677;SDS011;70042;52.494;5.502;2023-12-07T13:59:40;3.65;;;2.60;;
80677;SDS011;70042;52.494;5.502;2023-12-07T14:02:06;2.85;;;2.00;;
80677;SDS011;70042;52.494;5.502;2023-12-07T14:04:31;2.92;;;2.13;;
80677;SDS011;70042;52.494;5.502;2023-12-07T14:09:52;2.97;;;2.63;;
80677;SDS011;70042;52.494;5.502;2023-12-07T14:12:18;4.68;;;2.17;;
80677;SDS011;70042;52.494;5.502;2023-12-07T14:14:45;4.55;;;2.67;;
80677;SDS011;70042;52.494;5.502;2023-12-07T14:17:15;5.55;;;2.70;;
80677;SDS011;70042;52.494;5.502;2023-12-07T14:19:42;3.67;;;2.20;;
80677;SDS011;70042;52.494;5.502;2023-12-07T14:22:08;7.53;;;3.20;;
80677;SDS011;70042;52.494;5.502;2023-12-07T14:24:37;4.65;;;3.08;;
80677;SDS011;70042;52.494;5.502;2023-12-07T14:27:03;7.82;;;2.92;;
80677;SDS011;70042;52.494;5.502;2023-12-07T14:29:29;16.02;;;7.45;;
80677;SDS011;70042;52.494;5.502;2023-12-07T14:31:57;52.08;;;21.35;;
80677;SDS011;70042;52.494;5.502;2023-12-07T14:34:23;46.95;;;21.42;;
80677;SDS011;70042;52.494;5.502;2023-12-07T14:36:49;48.05;;;19.35;;
80677;SDS011;70042;52.494;5.502;2023-12-07T14:39:15;45.75;;;18.80;;
80677;SDS011;70042;52.494;5.502;2023-12-07T14:41:45;34.72;;;15.68;;
80677;SDS011;70042;52.494;5.502;2023-12-07T14:44:12;39.75;;;16.15;;
80677;SDS011;70042;52.494;5.502;2023-12-07T14:46:47;32.55;;;13.93;;
80677;SDS011;70042;52.494;5.502;2023-12-07T14:49:13;28.60;;;12.73;;
80677;SDS011;70042;52.494;5.502;2023-12-07T14:51:41;28.05;;;11.60;;
80677;SDS011;70042;52.494;5.502;2023-12-07T14:54:07;25.30;;;11.73;;
80677;SDS011;70042;52.494;5.502;2023-12-07T14:56:37;26.83;;;11.30;;
80677;SDS011;70042;52.494;5.502;2023-12-07T14:59:03;24.55;;;10.38;;